sensor_id;sensor_type;location;lat;lon;timestamp;temperature;humidity
10042;DHT22;5061;49.068;12.058;2023-06-26T00:03:16;19.10;99.90
10042;DHT22;5061;49.068;12.058;2023-06-26T00:06:36;19.10;99.90
10042;DHT22;5061;49.068;12.058;2023-06-26T00:09:58;19.00;99.90
10042;DHT22;5061;49.068;12.058;2023-06-26T00:13:19;18.90;99.90
10042;DHT22;5061;49.068;12.058;2023-06-26T00:16:40;18.80;99.90
10042;DHT22;5061;49.068;12.058;2023-06-26T00:20:03;18.80;99.90
10042;DHT22;5061;49.068;12.058;2023-06-26T00:23:25;18.80;99.90
10042;DHT22;5061;49.068;12.058;2023-06-26T00:26:54;18.80;99.90
10042;DHT22;5061;49.068;12.058;2023-06-26T00:30:15;18.80;99.90
10042;DHT22;5061;49.068;12.058;2023-06-26T00:33:35;18.70;99.90
10042;DHT22;5061;49.068;12.058;2023-06-26T00:36:56;18.70;99.90
10042;DHT22;5061;49.068;12.058;2023-06-26T00:40:17;18.70;99.90
10042;DHT22;5061;49.068;12.058;2023-06-26T00:43:38;18.60;99.90
10042;DHT22;5061;49.068;12.058;2023-06-26T00:47:00;18.60;99.90
10042;DHT22;5061;49.068;12.058;2023-06-26T00:50:21;18.50;99.90
10042;DHT22;5061;49.068;12.058;2023-06-26T00:53:42;18.50;99.90
10042;DHT22;5061;49.068;12.058;2023-06-26T00:57:03;18.50;99.90
10042;DHT22;5061;49.068;12.058;2023-06-26T01:00:24;18.40;99.90
10042;DHT22;5061;49.068;12.058;2023-06-26T01:03:45;18.40;99.90
10042;DHT22;5061;49.068;12.058;2023-06-26T01:07:06;18.30;99.90
10042;DHT22;5061;49.068;12.058;2023-06-26T01:10:27;18.30;99.90
10042;DHT22;5061;49.068;12.058;2023-06-26T01:13:48;18.30;99.90
10042;DHT22;5061;49.068;12.058;2023-06-26T01:17:11;18.20;99.90
10042;DHT22;5061;49.068;12.058;2023-06-26T01:20:37;18.20;99.90
10042;DHT22;5061;49.068;12.058;2023-06-26T01:24:18;18.10;99.90
10042;DHT22;5061;49.068;12.058;2023-06-26T01:27:41;18.10;99.90
10042;DHT22;5061;49.068;12.058;2023-06-26T01:31:02;18.10;99.90
10042;DHT22;5061;49.068;12.058;2023-06-26T01:34:23;18.10;99.90
10042;DHT22;5061;49.068;12.058;2023-06-26T01:37:44;18.00;99.90
10042;DHT22;5061;49.068;12.058;2023-06-26T01:41:05;18.00;99.90
10042;DHT22;5061;49.068;12.058;2023-06-26T01:44:28;18.00;99.90
10042;DHT22;5061;49.068;12.058;2023-06-26T01:47:50;17.90;99.90
10042;DHT22;5061;49.068;12.058;2023-06-26T01:51:14;17.90;99.90
10042;DHT22;5061;49.068;12.058;2023-06-26T01:55:36;17.90;99.90
10042;DHT22;5061;49.068;12.058;2023-06-26T01:58:31;17.80;99.90
10042;DHT22;5061;49.068;12.058;2023-06-26T02:01:52;17.80;99.90
10042;DHT22;5061;49.068;12.058;2023-06-26T02:05:13;17.80;99.90
10042;DHT22;5061;49.068;12.058;2023-06-26T02:08:35;17.70;99.90
10042;DHT22;5061;49.068;12.058;2023-06-26T02:11:56;17.70;99.90
10042;DHT22;5061;49.068;12.058;2023-06-26T02:15:16;17.50;99.90
10042;DHT22;5061;49.068;12.058;2023-06-26T02:18:37;17.40;99.90
10042;DHT22;5061;49.068;12.058;2023-06-26T02:21:57;17.40;99.90
10042;DHT22;5061;49.068;12.058;2023-06-26T02:25:18;17.40;99.90
10042;DHT22;5061;49.068;12.058;2023-06-26T02:28:38;17.30;99.90
10042;DHT22;5061;49.068;12.058;2023-06-26T02:31:59;17.30;99.90
10042;DHT22;5061;49.068;12.058;2023-06-26T02:35:20;17.30;99.90
10042;DHT22;5061;49.068;12.058;2023-06-26T02:38:40;17.30;99.90
10042;DHT22;5061;49.068;12.058;2023-06-26T02:42:01;17.30;99.90
10042;DHT22;5061;49.068;12.058;2023-06-26T02:45:21;17.30;99.90
10042;DHT22;5061;49.068;12.058;2023-06-26T02:48:42;17.30;99.90
10042;DHT22;5061;49.068;12.058;2023-06-26T02:52:03;17.30;99.90
10042;DHT22;5061;49.068;12.058;2023-06-26T02:55:23;17.30;99.90
10042;DHT22;5061;49.068;12.058;2023-06-26T02:58:44;17.40;99.90
10042;DHT22;5061;49.068;12.058;2023-06-26T03:02:04;17.40;99.90
10042;DHT22;5061;49.068;12.058;2023-06-26T03:05:25;17.40;99.90
10042;DHT22;5061;49.068;12.058;2023-06-26T03:08:46;17.30;99.90
10042;DHT22;5061;49.068;12.058;2023-06-26T03:12:06;17.30;99.90
10042;DHT22;5061;49.068;12.058;2023-06-26T03:15:27;17.30;99.90
10042;DHT22;5061;49.068;12.058;2023-06-26T03:18:48;17.30;99.90
10042;DHT22;5061;49.068;12.058;2023-06-26T03:22:08;17.40;99.90
10042;DHT22;5061;49.068;12.058;2023-06-26T03:25:29;17.30;99.90
10042;DHT22;5061;49.068;12.058;2023-06-26T03:28:49;17.30;99.90
10042;DHT22;5061;49.068;12.058;2023-06-26T03:32:10;17.30;99.90
10042;DHT22;5061;49.068;12.058;2023-06-26T03:35:31;17.30;99.90
10042;DHT22;5061;49.068;12.058;2023-06-26T03:38:51;17.30;99.90
10042;DHT22;5061;49.068;12.058;2023-06-26T03:42:17;17.30;99.90
10042;DHT22;5061;49.068;12.058;2023-06-26T03:45:37;17.20;99.90
10042;DHT22;5061;49.068;12.058;2023-06-26T03:48:58;17.20;99.90
10042;DHT22;5061;49.068;12.058;2023-06-26T03:52:18;17.20;99.90
10042;DHT22;5061;49.068;12.058;2023-06-26T03:55:39;17.20;99.90
10042;DHT22;5061;49.068;12.058;2023-06-26T03:58:59;17.20;99.90
10042;DHT22;5061;49.068;12.058;2023-06-26T04:02:20;17.20;99.90
10042;DHT22;5061;49.068;12.058;2023-06-26T04:05:41;17.20;99.90
10042;DHT22;5061;49.068;12.058;2023-06-26T04:09:01;17.30;99.90
10042;DHT22;5061;49.068;12.058;2023-06-26T04:12:22;17.30;99.90
10042;DHT22;5061;49.068;12.058;2023-06-26T04:15:43;17.30;99.90
10042;DHT22;5061;49.068;12.058;2023-06-26T04:19:04;17.30;99.90
10042;DHT22;5061;49.068;12.058;2023-06-26T04:22:25;17.30;99.90
10042;DHT22;5061;49.068;12.058;2023-06-26T04:25:46;17.40;99.90
10042;DHT22;5061;49.068;12.058;2023-06-26T04:29:07;17.40;99.90
10042;DHT22;5061;49.068;12.058;2023-06-26T04:32:27;17.40;99.90
10042;DHT22;5061;49.068;12.058;2023-06-26T04:35:48;17.50;99.90
10042;DHT22;5061;49.068;12.058;2023-06-26T04:39:09;17.50;99.90
10042;DHT22;5061;49.068;12.058;2023-06-26T04:42:30;17.50;99.90
10042;DHT22;5061;49.068;12.058;2023-06-26T04:45:50;17.50;99.90
10042;DHT22;5061;49.068;12.058;2023-06-26T04:49:11;17.60;99.90
10042;DHT22;5061;49.068;12.058;2023-06-26T04:52:31;17.70;99.90
10042;DHT22;5061;49.068;12.058;2023-06-26T04:55:53;17.70;99.90
10042;DHT22;5061;49.068;12.058;2023-06-26T04:59:13;17.80;99.90
10042;DHT22;5061;49.068;12.058;2023-06-26T05:02:35;17.80;99.90
10042;DHT22;5061;49.068;12.058;2023-06-26T05:05:55;17.90;99.90
10042;DHT22;5061;49.068;12.058;2023-06-26T05:09:16;18.00;99.90
10042;DHT22;5061;49.068;12.058;2023-06-26T05:12:36;18.10;99.90
10042;DHT22;5061;49.068;12.058;2023-06-26T05:15:57;18.20;99.90
10042;DHT22;5061;49.068;12.058;2023-06-26T05:19:17;18.30;99.90
10042;DHT22;5061;49.068;12.058;2023-06-26T05:22:39;18.40;99.90
10042;DHT22;5061;49.068;12.058;2023-06-26T05:26:00;18.50;99.90
10042;DHT22;5061;49.068;12.058;2023-06-26T05:29:21;18.60;99.90
10042;DHT22;5061;49.068;12.058;2023-06-26T05:32:44;18.70;99.90
10042;DHT22;5061;49.068;12.058;2023-06-26T05:36:07;18.80;99.90
10042;DHT22;5061;49.068;12.058;2023-06-26T05:39:29;18.90;99.90
10042;DHT22;5061;49.068;12.058;2023-06-26T05:42:50;19.00;99.90
10042;DHT22;5061;49.068;12.058;2023-06-26T05:46:10;19.20;99.90
10042;DHT22;5061;49.068;12.058;2023-06-26T05:49:31;19.30;99.90
10042;DHT22;5061;49.068;12.058;2023-06-26T05:52:52;19.50;99.90
10042;DHT22;5061;49.068;12.058;2023-06-26T05:56:13;19.60;99.90
10042;DHT22;5061;49.068;12.058;2023-06-26T05:59:36;19.70;99.90
10042;DHT22;5061;49.068;12.058;2023-06-26T06:03:00;19.80;99.90
10042;DHT22;5061;49.068;12.058;2023-06-26T06:06:23;19.90;99.90
10042;DHT22;5061;49.068;12.058;2023-06-26T06:09:44;20.00;99.90
10042;DHT22;5061;49.068;12.058;2023-06-26T06:13:08;20.10;99.90
10042;DHT22;5061;49.068;12.058;2023-06-26T06:16:29;20.30;99.90
10042;DHT22;5061;49.068;12.058;2023-06-26T06:19:50;20.30;99.90
10042;DHT22;5061;49.068;12.058;2023-06-26T06:23:10;20.40;99.90
10042;DHT22;5061;49.068;12.058;2023-06-26T06:26:31;20.40;99.90
10042;DHT22;5061;49.068;12.058;2023-06-26T06:29:51;20.50;99.90
10042;DHT22;5061;49.068;12.058;2023-06-26T06:33:13;20.50;99.90
10042;DHT22;5061;49.068;12.058;2023-06-26T06:36:34;20.50;99.90
10042;DHT22;5061;49.068;12.058;2023-06-26T06:39:54;20.50;99.90
10042;DHT22;5061;49.068;12.058;2023-06-26T06:43:15;20.50;99.90
10042;DHT22;5061;49.068;12.058;2023-06-26T06:46:35;20.50;99.90
10042;DHT22;5061;49.068;12.058;2023-06-26T06:49:56;20.60;99.90
10042;DHT22;5061;49.068;12.058;2023-06-26T06:53:18;20.60;99.90
10042;DHT22;5061;49.068;12.058;2023-06-26T06:56:40;20.70;99.90
10042;DHT22;5061;49.068;12.058;2023-06-26T07:00:03;20.80;99.90
10042;DHT22;5061;49.068;12.058;2023-06-26T07:03:25;20.80;99.90
10042;DHT22;5061;49.068;12.058;2023-06-26T07:06:45;20.90;99.90
10042;DHT22;5061;49.068;12.058;2023-06-26T07:10:11;20.90;99.90
10042;DHT22;5061;49.068;12.058;2023-06-26T07:13:32;21.00;99.90
10042;DHT22;5061;49.068;12.058;2023-06-26T07:16:52;21.10;99.90
10042;DHT22;5061;49.068;12.058;2023-06-26T07:20:13;21.10;99.90
10042;DHT22;5061;49.068;12.058;2023-06-26T07:23:36;21.20;99.90
10042;DHT22;5061;49.068;12.058;2023-06-26T07:26:56;21.40;99.90
10042;DHT22;5061;49.068;12.058;2023-06-26T07:30:17;21.40;99.90
10042;DHT22;5061;49.068;12.058;2023-06-26T07:33:37;21.50;99.90
10042;DHT22;5061;49.068;12.058;2023-06-26T07:36:58;21.60;99.90
10042;DHT22;5061;49.068;12.058;2023-06-26T07:40:19;21.80;99.90
10042;DHT22;5061;49.068;12.058;2023-06-26T07:43:39;21.90;99.90
10042;DHT22;5061;49.068;12.058;2023-06-26T07:47:00;22.00;99.90
10042;DHT22;5061;49.068;12.058;2023-06-26T07:50:20;22.10;99.90
10042;DHT22;5061;49.068;12.058;2023-06-26T07:53:43;22.20;99.90
10042;DHT22;5061;49.068;12.058;2023-06-26T07:57:04;22.30;99.90
10042;DHT22;5061;49.068;12.058;2023-06-26T08:00:29;22.50;99.90
10042;DHT22;5061;49.068;12.058;2023-06-26T08:03:49;22.70;99.90
10042;DHT22;5061;49.068;12.058;2023-06-26T08:07:10;22.80;99.90
10042;DHT22;5061;49.068;12.058;2023-06-26T08:10:31;23.00;99.90
10042;DHT22;5061;49.068;12.058;2023-06-26T08:13:51;23.10;99.90
10042;DHT22;5061;49.068;12.058;2023-06-26T08:17:12;23.30;99.90
10042;DHT22;5061;49.068;12.058;2023-06-26T08:20:33;23.50;99.90
10042;DHT22;5061;49.068;12.058;2023-06-26T08:23:56;23.60;99.90
10042;DHT22;5061;49.068;12.058;2023-06-26T08:27:17;23.80;99.90
10042;DHT22;5061;49.068;12.058;2023-06-26T08:30:37;24.00;99.90
10042;DHT22;5061;49.068;12.058;2023-06-26T08:33:58;24.20;99.90
10042;DHT22;5061;49.068;12.058;2023-06-26T08:37:18;24.30;99.90
10042;DHT22;5061;49.068;12.058;2023-06-26T08:40:39;24.50;99.90
10042;DHT22;5061;49.068;12.058;2023-06-26T08:44:00;24.60;99.90
10042;DHT22;5061;49.068;12.058;2023-06-26T08:47:21;24.80;99.90
10042;DHT22;5061;49.068;12.058;2023-06-26T08:50:43;25.00;99.90
10042;DHT22;5061;49.068;12.058;2023-06-26T08:54:07;25.10;99.90
10042;DHT22;5061;49.068;12.058;2023-06-26T08:57:30;25.30;99.90
10042;DHT22;5061;49.068;12.058;2023-06-26T09:00:52;25.50;99.90
10042;DHT22;5061;49.068;12.058;2023-06-26T09:04:13;25.60;99.90
10042;DHT22;5061;49.068;12.058;2023-06-26T09:07:34;25.80;99.90
10042;DHT22;5061;49.068;12.058;2023-06-26T09:10:55;25.90;99.90
10042;DHT22;5061;49.068;12.058;2023-06-26T09:14:15;26.10;99.90
10042;DHT22;5061;49.068;12.058;2023-06-26T09:17:39;26.20;99.90
10042;DHT22;5061;49.068;12.058;2023-06-26T09:21:07;26.40;99.90
10042;DHT22;5061;49.068;12.058;2023-06-26T09:24:28;26.50;99.90
10042;DHT22;5061;49.068;12.058;2023-06-26T09:27:50;26.70;99.90
10042;DHT22;5061;49.068;12.058;2023-06-26T09:31:11;26.90;99.90
10042;DHT22;5061;49.068;12.058;2023-06-26T09:34:33;27.00;99.90
10042;DHT22;5061;49.068;12.058;2023-06-26T09:37:53;27.10;99.90
10042;DHT22;5061;49.068;12.058;2023-06-26T09:41:18;27.30;99.90
10042;DHT22;5061;49.068;12.058;2023-06-26T09:44:44;27.40;99.90
10042;DHT22;5061;49.068;12.058;2023-06-26T09:48:05;27.50;99.90
10042;DHT22;5061;49.068;12.058;2023-06-26T09:51:26;27.70;99.90
10042;DHT22;5061;49.068;12.058;2023-06-26T09:54:46;27.80;99.90
10042;DHT22;5061;49.068;12.058;2023-06-26T09:58:08;28.00;99.90
10042;DHT22;5061;49.068;12.058;2023-06-26T10:01:30;28.20;99.90
10042;DHT22;5061;49.068;12.058;2023-06-26T10:04:51;28.20;99.90
10042;DHT22;5061;49.068;12.058;2023-06-26T10:08:11;28.40;99.90
10042;DHT22;5061;49.068;12.058;2023-06-26T10:11:41;28.50;99.90
10042;DHT22;5061;49.068;12.058;2023-06-26T10:15:06;28.60;99.90
10042;DHT22;5061;49.068;12.058;2023-06-26T10:18:28;28.70;99.90
10042;DHT22;5061;49.068;12.058;2023-06-26T10:21:51;28.70;99.90
10042;DHT22;5061;49.068;12.058;2023-06-26T10:25:16;28.90;99.90
10042;DHT22;5061;49.068;12.058;2023-06-26T10:28:38;29.00;99.90
10042;DHT22;5061;49.068;12.058;2023-06-26T10:32:00;29.20;99.90
10042;DHT22;5061;49.068;12.058;2023-06-26T10:35:24;29.30;99.90
10042;DHT22;5061;49.068;12.058;2023-06-26T10:38:49;29.40;99.90
10042;DHT22;5061;49.068;12.058;2023-06-26T10:42:10;29.60;99.90
10042;DHT22;5061;49.068;12.058;2023-06-26T10:45:33;29.70;99.90
10042;DHT22;5061;49.068;12.058;2023-06-26T10:48:58;29.90;99.90
10042;DHT22;5061;49.068;12.058;2023-06-26T10:52:19;30.00;99.90
10042;DHT22;5061;49.068;12.058;2023-06-26T10:55:49;30.10;99.90
10042;DHT22;5061;49.068;12.058;2023-06-26T10:59:19;30.20;99.90
10042;DHT22;5061;49.068;12.058;2023-06-26T11:02:52;30.40;99.90
10042;DHT22;5061;49.068;12.058;2023-06-26T11:06:14;30.60;99.90
10042;DHT22;5061;49.068;12.058;2023-06-26T11:09:53;30.70;99.90
10042;DHT22;5061;49.068;12.058;2023-06-26T11:13:17;30.80;99.90
10042;DHT22;5061;49.068;12.058;2023-06-26T11:16:39;30.90;99.90
10042;DHT22;5061;49.068;12.058;2023-06-26T11:20:07;31.10;99.90
10042;DHT22;5061;49.068;12.058;2023-06-26T11:23:32;31.10;99.90
10042;DHT22;5061;49.068;12.058;2023-06-26T11:26:53;30.90;99.90
10042;DHT22;5061;49.068;12.058;2023-06-26T11:30:24;30.80;99.90
10042;DHT22;5061;49.068;12.058;2023-06-26T11:33:46;30.70;99.90
10042;DHT22;5061;49.068;12.058;2023-06-26T11:37:06;30.80;99.90
10042;DHT22;5061;49.068;12.058;2023-06-26T11:40:28;30.80;99.90
10042;DHT22;5061;49.068;12.058;2023-06-26T11:43:52;30.90;99.90
10042;DHT22;5061;49.068;12.058;2023-06-26T11:47:17;31.00;99.90
10042;DHT22;5061;49.068;12.058;2023-06-26T11:50:38;31.00;99.90
10042;DHT22;5061;49.068;12.058;2023-06-26T11:54:01;30.90;99.90
10042;DHT22;5061;49.068;12.058;2023-06-26T11:57:25;30.90;99.90
10042;DHT22;5061;49.068;12.058;2023-06-26T12:00:47;30.90;99.90
10042;DHT22;5061;49.068;12.058;2023-06-26T12:04:10;30.70;99.90
10042;DHT22;5061;49.068;12.058;2023-06-26T12:07:31;30.60;99.90
10042;DHT22;5061;49.068;12.058;2023-06-26T12:10:53;30.60;99.90
10042;DHT22;5061;49.068;12.058;2023-06-26T12:14:14;30.80;99.90
10042;DHT22;5061;49.068;12.058;2023-06-26T12:17:38;31.10;99.90
10042;DHT22;5061;49.068;12.058;2023-06-26T12:21:01;31.30;99.90
10042;DHT22;5061;49.068;12.058;2023-06-26T12:24:23;31.30;99.90
10042;DHT22;5061;49.068;12.058;2023-06-26T12:27:44;31.40;99.90
10042;DHT22;5061;49.068;12.058;2023-06-26T12:31:15;31.50;99.90
10042;DHT22;5061;49.068;12.058;2023-06-26T12:34:38;31.60;99.90
10042;DHT22;5061;49.068;12.058;2023-06-26T12:37:58;31.60;99.90
10042;DHT22;5061;49.068;12.058;2023-06-26T12:41:19;31.60;99.90
10042;DHT22;5061;49.068;12.058;2023-06-26T12:44:40;31.60;99.90
10042;DHT22;5061;49.068;12.058;2023-06-26T12:48:11;31.60;99.90
10042;DHT22;5061;49.068;12.058;2023-06-26T12:51:32;31.70;99.90
10042;DHT22;5061;49.068;12.058;2023-06-26T12:54:54;32.00;99.90
10042;DHT22;5061;49.068;12.058;2023-06-26T12:58:16;32.10;99.90
10042;DHT22;5061;49.068;12.058;2023-06-26T13:01:37;32.20;99.90
10042;DHT22;5061;49.068;12.058;2023-06-26T13:04:58;32.30;99.90
10042;DHT22;5061;49.068;12.058;2023-06-26T13:08:19;32.40;99.90
10042;DHT22;5061;49.068;12.058;2023-06-26T13:11:39;32.50;99.90
10042;DHT22;5061;49.068;12.058;2023-06-26T13:15:00;32.60;99.90
10042;DHT22;5061;49.068;12.058;2023-06-26T13:18:21;32.60;99.90
10042;DHT22;5061;49.068;12.058;2023-06-26T13:21:41;32.30;99.90
10042;DHT22;5061;49.068;12.058;2023-06-26T13:25:02;32.20;99.90
10042;DHT22;5061;49.068;12.058;2023-06-26T13:28:23;32.30;99.90
10042;DHT22;5061;49.068;12.058;2023-06-26T13:31:43;32.00;99.90
10042;DHT22;5061;49.068;12.058;2023-06-26T13:35:04;31.70;99.90
10042;DHT22;5061;49.068;12.058;2023-06-26T13:38:25;31.40;99.90
10042;DHT22;5061;49.068;12.058;2023-06-26T13:41:46;31.20;99.90
10042;DHT22;5061;49.068;12.058;2023-06-26T13:45:07;31.20;99.90
10042;DHT22;5061;49.068;12.058;2023-06-26T13:48:28;31.30;99.90
10042;DHT22;5061;49.068;12.058;2023-06-26T13:51:48;31.60;99.90
10042;DHT22;5061;49.068;12.058;2023-06-26T13:55:09;31.70;99.90
10042;DHT22;5061;49.068;12.058;2023-06-26T13:58:29;31.90;99.90
10042;DHT22;5061;49.068;12.058;2023-06-26T14:01:52;32.10;99.90
10042;DHT22;5061;49.068;12.058;2023-06-26T14:05:13;32.10;99.90
10042;DHT22;5061;49.068;12.058;2023-06-26T14:08:33;32.00;99.90
10042;DHT22;5061;49.068;12.058;2023-06-26T14:11:54;31.70;99.90
10042;DHT22;5061;49.068;12.058;2023-06-26T14:15:15;31.70;99.90
10042;DHT22;5061;49.068;12.058;2023-06-26T14:18:35;31.70;99.90
10042;DHT22;5061;49.068;12.058;2023-06-26T14:21:56;31.70;99.90
10042;DHT22;5061;49.068;12.058;2023-06-26T14:25:17;31.40;99.90
10042;DHT22;5061;49.068;12.058;2023-06-26T14:28:38;31.40;99.90
10042;DHT22;5061;49.068;12.058;2023-06-26T14:31:59;31.50;99.90
10042;DHT22;5061;49.068;12.058;2023-06-26T14:35:20;31.60;99.90
10042;DHT22;5061;49.068;12.058;2023-06-26T14:38:40;31.70;99.90
10042;DHT22;5061;49.068;12.058;2023-06-26T14:42:01;31.80;99.90
10042;DHT22;5061;49.068;12.058;2023-06-26T14:45:21;31.90;99.90
10042;DHT22;5061;49.068;12.058;2023-06-26T14:48:42;32.00;99.90
10042;DHT22;5061;49.068;12.058;2023-06-26T14:52:03;32.10;99.90
10042;DHT22;5061;49.068;12.058;2023-06-26T14:55:23;32.10;99.90
10042;DHT22;5061;49.068;12.058;2023-06-26T14:58:44;32.10;99.90
10042;DHT22;5061;49.068;12.058;2023-06-26T15:02:07;32.20;99.90
10042;DHT22;5061;49.068;12.058;2023-06-26T15:05:27;32.20;99.90
10042;DHT22;5061;49.068;12.058;2023-06-26T15:08:48;32.10;99.90
10042;DHT22;5061;49.068;12.058;2023-06-26T15:12:09;32.10;99.90
10042;DHT22;5061;49.068;12.058;2023-06-26T15:15:30;32.20;99.90
10042;DHT22;5061;49.068;12.058;2023-06-26T15:18:50;32.20;99.90
10042;DHT22;5061;49.068;12.058;2023-06-26T15:22:11;32.30;99.90
10042;DHT22;5061;49.068;12.058;2023-06-26T15:25:31;32.30;99.90
10042;DHT22;5061;49.068;12.058;2023-06-26T15:28:55;32.20;99.90
10042;DHT22;5061;49.068;12.058;2023-06-26T15:32:16;32.10;99.90
10042;DHT22;5061;49.068;12.058;2023-06-26T15:35:37;32.10;99.90
10042;DHT22;5061;49.068;12.058;2023-06-26T15:38:57;32.00;99.90
10042;DHT22;5061;49.068;12.058;2023-06-26T15:42:18;31.90;99.90
10042;DHT22;5061;49.068;12.058;2023-06-26T15:45:38;31.70;99.90
10042;DHT22;5061;49.068;12.058;2023-06-26T15:48:59;31.50;99.90
10042;DHT22;5061;49.068;12.058;2023-06-26T15:52:19;31.40;99.90
10042;DHT22;5061;49.068;12.058;2023-06-26T15:55:40;31.30;99.90
10042;DHT22;5061;49.068;12.058;2023-06-26T15:59:01;31.40;99.90
10042;DHT22;5061;49.068;12.058;2023-06-26T16:02:21;31.40;99.90
10042;DHT22;5061;49.068;12.058;2023-06-26T16:05:42;31.50;99.90
10042;DHT22;5061;49.068;12.058;2023-06-26T16:09:02;31.50;99.90
10042;DHT22;5061;49.068;12.058;2023-06-26T16:12:23;31.60;99.90
10042;DHT22;5061;49.068;12.058;2023-06-26T16:15:44;31.50;99.90
10042;DHT22;5061;49.068;12.058;2023-06-26T16:19:05;31.40;99.90
10042;DHT22;5061;49.068;12.058;2023-06-26T16:22:26;31.30;99.90
10042;DHT22;5061;49.068;12.058;2023-06-26T16:25:47;31.20;99.90
10042;DHT22;5061;49.068;12.058;2023-06-26T16:29:07;31.20;99.90
10042;DHT22;5061;49.068;12.058;2023-06-26T16:32:28;31.10;99.90
10042;DHT22;5061;49.068;12.058;2023-06-26T16:35:49;31.00;99.90
10042;DHT22;5061;49.068;12.058;2023-06-26T16:39:10;30.90;99.90
10042;DHT22;5061;49.068;12.058;2023-06-26T16:42:32;31.00;99.90
10042;DHT22;5061;49.068;12.058;2023-06-26T16:45:52;30.90;99.90
10042;DHT22;5061;49.068;12.058;2023-06-26T16:49:13;30.80;99.90
10042;DHT22;5061;49.068;12.058;2023-06-26T16:52:34;30.70;99.90
10042;DHT22;5061;49.068;12.058;2023-06-26T16:55:54;30.60;99.90
10042;DHT22;5061;49.068;12.058;2023-06-26T16:59:15;30.40;99.90
10042;DHT22;5061;49.068;12.058;2023-06-26T17:02:36;30.30;99.90
10042;DHT22;5061;49.068;12.058;2023-06-26T17:05:56;30.20;99.90
10042;DHT22;5061;49.068;12.058;2023-06-26T17:09:17;30.10;99.90
10042;DHT22;5061;49.068;12.058;2023-06-26T17:12:38;30.00;99.90
10042;DHT22;5061;49.068;12.058;2023-06-26T17:15:59;29.90;99.90
10042;DHT22;5061;49.068;12.058;2023-06-26T17:19:20;29.80;99.90
10042;DHT22;5061;49.068;12.058;2023-06-26T17:22:40;29.70;99.90
10042;DHT22;5061;49.068;12.058;2023-06-26T17:26:04;29.60;99.90
10042;DHT22;5061;49.068;12.058;2023-06-26T17:29:25;29.40;99.90
10042;DHT22;5061;49.068;12.058;2023-06-26T17:32:45;29.30;99.90
10042;DHT22;5061;49.068;12.058;2023-06-26T17:36:06;29.20;99.90
10042;DHT22;5061;49.068;12.058;2023-06-26T17:39:27;29.10;99.90
10042;DHT22;5061;49.068;12.058;2023-06-26T17:42:47;28.90;99.90
10042;DHT22;5061;49.068;12.058;2023-06-26T17:46:11;28.90;99.90
10042;DHT22;5061;49.068;12.058;2023-06-26T17:49:31;28.80;99.90
10042;DHT22;5061;49.068;12.058;2023-06-26T17:52:52;28.70;99.90
10042;DHT22;5061;49.068;12.058;2023-06-26T17:56:13;28.70;99.90
10042;DHT22;5061;49.068;12.058;2023-06-26T17:59:33;28.60;99.90
10042;DHT22;5061;49.068;12.058;2023-06-26T18:02:54;28.50;99.90
10042;DHT22;5061;49.068;12.058;2023-06-26T18:06:19;28.40;99.90
10042;DHT22;5061;49.068;12.058;2023-06-26T18:09:39;28.30;99.90
10042;DHT22;5061;49.068;12.058;2023-06-26T18:13:00;28.20;99.90
10042;DHT22;5061;49.068;12.058;2023-06-26T18:16:21;28.10;99.90
10042;DHT22;5061;49.068;12.058;2023-06-26T18:19:42;28.00;99.90
10042;DHT22;5061;49.068;12.058;2023-06-26T18:23:03;27.80;99.90
10042;DHT22;5061;49.068;12.058;2023-06-26T18:26:23;27.70;99.90
10042;DHT22;5061;49.068;12.058;2023-06-26T18:29:44;27.60;99.90
10042;DHT22;5061;49.068;12.058;2023-06-26T18:33:04;27.50;99.90
10042;DHT22;5061;49.068;12.058;2023-06-26T18:36:25;27.40;99.90
10042;DHT22;5061;49.068;12.058;2023-06-26T18:39:47;27.30;99.90
10042;DHT22;5061;49.068;12.058;2023-06-26T18:43:11;27.20;99.90
10042;DHT22;5061;49.068;12.058;2023-06-26T18:46:31;27.10;99.90
10042;DHT22;5061;49.068;12.058;2023-06-26T18:49:52;27.00;99.90
10042;DHT22;5061;49.068;12.058;2023-06-26T18:53:15;27.00;99.90
10042;DHT22;5061;49.068;12.058;2023-06-26T18:56:36;26.80;99.90
10042;DHT22;5061;49.068;12.058;2023-06-26T18:59:56;26.70;99.90
10042;DHT22;5061;49.068;12.058;2023-06-26T19:03:17;26.60;99.90
10042;DHT22;5061;49.068;12.058;2023-06-26T19:06:38;26.50;99.90
10042;DHT22;5061;49.068;12.058;2023-06-26T19:09:58;26.40;99.90
10042;DHT22;5061;49.068;12.058;2023-06-26T19:13:19;26.30;99.90
10042;DHT22;5061;49.068;12.058;2023-06-26T19:16:40;26.20;99.90
10042;DHT22;5061;49.068;12.058;2023-06-26T19:20:04;26.10;99.90
10042;DHT22;5061;49.068;12.058;2023-06-26T19:23:29;26.00;99.90
10042;DHT22;5061;49.068;12.058;2023-06-26T19:26:52;25.90;99.90
10042;DHT22;5061;49.068;12.058;2023-06-26T19:30:17;25.80;99.90
10042;DHT22;5061;49.068;12.058;2023-06-26T19:33:38;25.70;99.90
10042;DHT22;5061;49.068;12.058;2023-06-26T19:36:58;25.60;99.90
10042;DHT22;5061;49.068;12.058;2023-06-26T19:40:19;25.60;99.90
10042;DHT22;5061;49.068;12.058;2023-06-26T19:43:42;25.50;99.90
10042;DHT22;5061;49.068;12.058;2023-06-26T19:47:03;25.40;99.90
10042;DHT22;5061;49.068;12.058;2023-06-26T19:50:24;25.30;99.90
10042;DHT22;5061;49.068;12.058;2023-06-26T19:53:45;25.20;99.90
10042;DHT22;5061;49.068;12.058;2023-06-26T19:57:06;25.10;99.90
10042;DHT22;5061;49.068;12.058;2023-06-26T20:00:31;25.10;99.90
10042;DHT22;5061;49.068;12.058;2023-06-26T20:03:51;25.00;99.90
10042;DHT22;5061;49.068;12.058;2023-06-26T20:07:12;24.90;99.90
10042;DHT22;5061;49.068;12.058;2023-06-26T20:10:33;24.90;99.90
10042;DHT22;5061;49.068;12.058;2023-06-26T20:13:53;24.80;99.90
10042;DHT22;5061;49.068;12.058;2023-06-26T20:17:14;24.80;99.90
10042;DHT22;5061;49.068;12.058;2023-06-26T20:20:35;24.70;99.90
10042;DHT22;5061;49.068;12.058;2023-06-26T20:23:55;24.70;99.90
10042;DHT22;5061;49.068;12.058;2023-06-26T20:27:16;24.60;99.90
10042;DHT22;5061;49.068;12.058;2023-06-26T20:30:36;24.60;99.90
10042;DHT22;5061;49.068;12.058;2023-06-26T20:33:57;24.50;99.90
10042;DHT22;5061;49.068;12.058;2023-06-26T20:37:18;24.50;99.90
10042;DHT22;5061;49.068;12.058;2023-06-26T20:40:41;24.40;99.90
10042;DHT22;5061;49.068;12.058;2023-06-26T20:44:02;24.40;99.90
10042;DHT22;5061;49.068;12.058;2023-06-26T20:47:24;24.30;99.90
10042;DHT22;5061;49.068;12.058;2023-06-26T20:50:53;24.20;99.90
10042;DHT22;5061;49.068;12.058;2023-06-26T20:54:14;24.20;99.90
10042;DHT22;5061;49.068;12.058;2023-06-26T20:57:37;24.10;99.90
10042;DHT22;5061;49.068;12.058;2023-06-26T21:00:58;24.10;99.90
10042;DHT22;5061;49.068;12.058;2023-06-26T21:04:18;24.00;99.90
10042;DHT22;5061;49.068;12.058;2023-06-26T21:07:39;24.00;99.90
10042;DHT22;5061;49.068;12.058;2023-06-26T21:11:00;23.90;99.90
10042;DHT22;5061;49.068;12.058;2023-06-26T21:14:20;23.80;99.90